sensor_id;sensor_type;location;lat;lon;timestamp;pressure;altitude;pressure_sealevel;temperature;humidity
23574;BME280;11965;53.640;10.050;2023-03-01T00:01:02;103058.72;;;-2.33;100.00
23574;BME280;11965;53.640;10.050;2023-03-01T00:03:29;103059.72;;;-2.36;100.00
23574;BME280;11965;53.640;10.050;2023-03-01T00:05:57;103062.50;;;-2.37;100.00
23574;BME280;11965;53.640;10.050;2023-03-01T00:08:25;103065.31;;;-2.40;100.00
23574;BME280;11965;53.640;10.050;2023-03-01T00:11:02;103062.72;;;-2.43;100.00
23574;BME280;11965;53.640;10.050;2023-03-01T00:13:29;103065.59;;;-2.48;100.00
23574;BME280;11965;53.640;10.050;2023-03-01T00:15:56;103067.47;;;-2.50;100.00
23574;BME280;11965;53.640;10.050;2023-03-01T00:18:24;103053.91;;;-2.50;100.00
23574;BME280;11965;53.640;10.050;2023-03-01T00:20:51;103051.91;;;-2.45;100.00
23574;BME280;11965;53.640;10.050;2023-03-01T00:23:19;103059.16;;;-2.46;100.00
23574;BME280;11965;53.640;10.050;2023-03-01T00:25:46;103057.59;;;-2.53;100.00
23574;BME280;11965;53.640;10.050;2023-03-01T00:28:14;103049.25;;;-2.47;100.00
23574;BME280;11965;53.640;10.050;2023-03-01T00:30:42;103053.09;;;-2.52;100.00
23574;BME280;11965;53.640;10.050;2023-03-01T00:33:10;103050.41;;;-2.54;100.00
23574;BME280;11965;53.640;10.050;2023-03-01T00:35:37;103063.03;;;-2.53;100.00
23574;BME280;11965;53.640;10.050;2023-03-01T00:38:18;103060.41;;;-2.54;100.00
23574;BME280;11965;53.640;10.050;2023-03-01T00:40:45;103051.56;;;-2.61;100.00
23574;BME280;11965;53.640;10.050;2023-03-01T00:43:13;103048.97;;;-2.64;100.00
23574;BME280;11965;53.640;10.050;2023-03-01T00:45:41;103053.41;;;-2.61;100.00
23574;BME280;11965;53.640;10.050;2023-03-01T00:48:07;103048.94;;;-2.62;100.00
23574;BME280;11965;53.640;10.050;2023-03-01T00:50:34;103053.28;;;-2.58;100.00
23574;BME280;11965;53.640;10.050;2023-03-01T00:53:02;103054.13;;;-2.56;100.00
23574;BME280;11965;53.640;10.050;2023-03-01T00:55:30;103052.53;;;-2.62;100.00
23574;BME280;11965;53.640;10.050;2023-03-01T00:57:57;103047.44;;;-2.71;100.00
23574;BME280;11965;53.640;10.050;2023-03-01T01:00:25;103052.69;;;-2.67;100.00
23574;BME280;11965;53.640;10.050;2023-03-01T01:02:53;103054.47;;;-2.65;100.00
23574;BME280;11965;53.640;10.050;2023-03-01T01:05:20;103045.59;;;-2.71;100.00
23574;BME280;11965;53.640;10.050;2023-03-01T01:07:47;103043.81;;;-2.72;100.00
23574;BME280;11965;53.640;10.050;2023-03-01T01:10:15;103052.53;;;-2.62;100.00
23574;BME280;11965;53.640;10.050;2023-03-01T01:12:44;103051.66;;;-2.62;100.00
23574;BME280;11965;53.640;10.050;2023-03-01T01:15:11;103044.53;;;-2.67;100.00
23574;BME280;11965;53.640;10.050;2023-03-01T01:17:43;103039.34;;;-2.73;100.00
23574;BME280;11965;53.640;10.050;2023-03-01T01:20:11;103039.22;;;-2.70;100.00
23574;BME280;11965;53.640;10.050;2023-03-01T01:22:38;103029.34;;;-2.72;100.00
23574;BME280;11965;53.640;10.050;2023-03-01T01:25:06;103034.78;;;-2.72;100.00
23574;BME280;11965;53.640;10.050;2023-03-01T01:27:33;103036.50;;;-2.70;100.00
23574;BME280;11965;53.640;10.050;2023-03-01T01:30:00;103027.44;;;-2.69;100.00
23574;BME280;11965;53.640;10.050;2023-03-01T01:32:27;103025.53;;;-2.67;100.00
23574;BME280;11965;53.640;10.050;2023-03-01T01:34:55;103026.63;;;-2.72;100.00
23574;BME280;11965;53.640;10.050;2023-03-01T01:37:22;103018.66;;;-2.77;100.00
23574;BME280;11965;53.640;10.050;2023-03-01T01:39:54;103017.63;;;-2.73;100.00
23574;BME280;11965;53.640;10.050;2023-03-01T01:42:21;103018.63;;;-2.75;100.00
23574;BME280;11965;53.640;10.050;2023-03-01T01:44:48;103014.19;;;-2.78;100.00
23574;BME280;11965;53.640;10.050;2023-03-01T01:47:35;103012.41;;;-2.79;100.00
23574;BME280;11965;53.640;10.050;2023-03-01T01:50:04;103006.13;;;-2.79;100.00
23574;BME280;11965;53.640;10.050;2023-03-01T01:52:35;103011.47;;;-2.78;100.00
23574;BME280;11965;53.640;10.050;2023-03-01T01:55:08;102999.72;;;-2.78;100.00
23574;BME280;11965;53.640;10.050;2023-03-01T01:57:41;103007.75;;;-2.75;100.00
23574;BME280;11965;53.640;10.050;2023-03-01T02:00:13;103011.63;;;-2.82;100.00
23574;BME280;11965;53.640;10.050;2023-03-01T02:02:43;103003.44;;;-2.81;100.00
23574;BME280;11965;53.640;10.050;2023-03-01T02:05:18;102996.19;;;-2.80;100.00
23574;BME280;11965;53.640;10.050;2023-03-01T02:07:48;102994.34;;;-2.80;100.00
23574;BME280;11965;53.640;10.050;2023-03-01T02:10:19;102998.00;;;-2.81;100.00
23574;BME280;11965;53.640;10.050;2023-03-01T02:12:47;102995.41;;;-2.84;100.00
23574;BME280;11965;53.640;10.050;2023-03-01T02:15:13;102992.94;;;-2.90;100.00
23574;BME280;11965;53.640;10.050;2023-03-01T02:17:41;102999.38;;;-2.94;100.00
23574;BME280;11965;53.640;10.050;2023-03-01T02:20:22;102997.72;;;-2.98;100.00
23574;BME280;11965;53.640;10.050;2023-03-01T02:22:51;102994.94;;;-2.97;100.00
23574;BME280;11965;53.640;10.050;2023-03-01T02:25:38;102993.97;;;-2.94;100.00
23574;BME280;11965;53.640;10.050;2023-03-01T02:28:21;102993.19;;;-2.98;100.00
23574;BME280;11965;53.640;10.050;2023-03-01T02:30:49;102993.34;;;-3.02;100.00
23574;BME280;11965;53.640;10.050;2023-03-01T02:33:38;102988.97;;;-3.06;100.00
23574;BME280;11965;53.640;10.050;2023-03-01T02:36:10;102978.81;;;-3.01;100.00
23574;BME280;11965;53.640;10.050;2023-03-01T02:38:40;102981.72;;;-3.06;100.00
23574;BME280;11965;53.640;10.050;2023-03-01T02:41:11;102986.19;;;-3.05;100.00
23574;BME280;11965;53.640;10.050;2023-03-01T02:43:39;102989.88;;;-3.06;100.00
23574;BME280;11965;53.640;10.050;2023-03-01T02:46:13;102986.25;;;-3.06;100.00
23574;BME280;11965;53.640;10.050;2023-03-01T02:48:45;102988.16;;;-3.08;100.00
23574;BME280;11965;53.640;10.050;2023-03-01T02:51:28;102982.59;;;-3.05;100.00
23574;BME280;11965;53.640;10.050;2023-03-01T02:54:08;102980.66;;;-3.02;100.00
23574;BME280;11965;53.640;10.050;2023-03-01T02:56:37;102976.19;;;-3.03;100.00
23574;BME280;11965;53.640;10.050;2023-03-01T02:59:08;102969.94;;;-3.05;100.00
23574;BME280;11965;53.640;10.050;2023-03-01T03:01:36;102967.94;;;-3.00;100.00
23574;BME280;11965;53.640;10.050;2023-03-01T03:04:06;102973.38;;;-3.00;100.00
23574;BME280;11965;53.640;10.050;2023-03-01T03:06:33;102972.47;;;-3.00;100.00
23574;BME280;11965;53.640;10.050;2023-03-01T03:09:01;102973.47;;;-3.03;100.00
23574;BME280;11965;53.640;10.050;2023-03-01T03:11:30;102963.47;;;-3.01;100.00
23574;BME280;11965;53.640;10.050;2023-03-01T03:13:57;102973.28;;;-2.98;100.00
23574;BME280;11965;53.640;10.050;2023-03-01T03:16:26;102963.16;;;-2.93;100.00
23574;BME280;11965;53.640;10.050;2023-03-01T03:18:53;102970.41;;;-2.94;100.00
23574;BME280;11965;53.640;10.050;2023-03-01T03:21:19;102973.69;;;-2.84;100.00
23574;BME280;11965;53.640;10.050;2023-03-01T03:23:46;102970.97;;;-2.84;100.00
23574;BME280;11965;53.640;10.050;2023-03-01T03:26:13;102964.56;;;-2.81;100.00
23574;BME280;11965;53.640;10.050;2023-03-01T03:28:40;102953.59;;;-2.78;100.00
23574;BME280;11965;53.640;10.050;2023-03-01T03:31:07;102962.34;;;-2.70;100.00
23574;BME280;11965;53.640;10.050;2023-03-01T03:33:36;102966.75;;;-2.68;100.00
23574;BME280;11965;53.640;10.050;2023-03-01T03:36:04;102947.34;;;-2.57;100.00
23574;BME280;11965;53.640;10.050;2023-03-01T03:38:31;102948.00;;;-2.50;100.00
23574;BME280;11965;53.640;10.050;2023-03-01T03:41:03;102956.72;;;-2.42;100.00
23574;BME280;11965;53.640;10.050;2023-03-01T03:43:32;102954.56;;;-2.32;100.00
23574;BME280;11965;53.640;10.050;2023-03-01T03:46:00;102948.94;;;-2.28;100.00
23574;BME280;11965;53.640;10.050;2023-03-01T03:48:33;102938.91;;;-2.26;100.00
23574;BME280;11965;53.640;10.050;2023-03-01T03:51:02;102940.13;;;-2.11;100.00
23574;BME280;11965;53.640;10.050;2023-03-01T03:53:31;102934.44;;;-2.05;100.00
23574;BME280;11965;53.640;10.050;2023-03-01T03:55:58;102936.34;;;-2.07;100.00
23574;BME280;11965;53.640;10.050;2023-03-01T03:58:25;102934.38;;;-2.03;100.00
23574;BME280;11965;53.640;10.050;2023-03-01T04:00:55;102936.28;;;-2.05;100.00
23574;BME280;11965;53.640;10.050;2023-03-01T04:03:24;102929.84;;;-2.03;100.00
23574;BME280;11965;53.640;10.050;2023-03-01T04:05:52;102934.09;;;-1.95;100.00
23574;BME280;11965;53.640;10.050;2023-03-01T04:08:21;102927.88;;;-1.99;100.00
23574;BME280;11965;53.640;10.050;2023-03-01T04:10:50;102933.31;;;-1.99;100.00
23574;BME280;11965;53.640;10.050;2023-03-01T04:13:20;102929.78;;;-2.01;100.00
23574;BME280;11965;53.640;10.050;2023-03-01T04:15:49;102931.53;;;-2.00;100.00
23574;BME280;11965;53.640;10.050;2023-03-01T04:18:17;102933.31;;;-1.99;100.00
23574;BME280;11965;53.640;10.050;2023-03-01T04:20:45;102931.38;;;-1.95;100.00
23574;BME280;11965;53.640;10.050;2023-03-01T04:23:13;102926.41;;;-1.86;100.00
23574;BME280;11965;53.640;10.050;2023-03-01T04:25:46;102931.75;;;-1.83;100.00
23574;BME280;11965;53.640;10.050;2023-03-01T04:28:15;102932.41;;;-1.78;100.00
23574;BME280;11965;53.640;10.050;2023-03-01T04:30:42;102928.50;;;-1.70;100.00
23574;BME280;11965;53.640;10.050;2023-03-01T04:33:10;102930.28;;;-1.69;100.00
23574;BME280;11965;53.640;10.050;2023-03-01T04:35:38;102939.63;;;-1.54;100.00
23574;BME280;11965;53.640;10.050;2023-03-01T04:38:06;102933.19;;;-1.52;100.00
23574;BME280;11965;53.640;10.050;2023-03-01T04:40:33;102936.03;;;-1.55;100.00
23574;BME280;11965;53.640;10.050;2023-03-01T04:43:03;102923.91;;;-1.48;100.00
23574;BME280;11965;53.640;10.050;2023-03-01T04:45:32;102936.31;;;-1.41;100.00
23574;BME280;11965;53.640;10.050;2023-03-01T04:48:00;102932.59;;;-1.38;100.00
23574;BME280;11965;53.640;10.050;2023-03-01T04:50:27;102934.09;;;-1.31;100.00
23574;BME280;11965;53.640;10.050;2023-03-01T04:52:55;102932.84;;;-1.24;100.00
23574;BME280;11965;53.640;10.050;2023-03-01T04:55:24;102936.22;;;-1.17;100.00
23574;BME280;11965;53.640;10.050;2023-03-01T04:57:52;102934.31;;;-1.15;100.00
23574;BME280;11965;53.640;10.050;2023-03-01T05:00:21;102935.94;;;-1.11;100.00
23574;BME280;11965;53.640;10.050;2023-03-01T05:02:51;102925.03;;;-1.11;100.00
23574;BME280;11965;53.640;10.050;2023-03-01T05:05:25;102932.00;;;-1.04;100.00
23574;BME280;11965;53.640;10.050;2023-03-01T05:07:57;102924.22;;;-0.93;100.00
23574;BME280;11965;53.640;10.050;2023-03-01T05:10:27;102917.63;;;-0.87;100.00
23574;BME280;11965;53.640;10.050;2023-03-01T05:12:56;102919.06;;;-0.99;100.00
23574;BME280;11965;53.640;10.050;2023-03-01T05:15:25;102927.38;;;-1.02;100.00
23574;BME280;11965;53.640;10.050;2023-03-01T05:17:54;102927.91;;;-0.94;100.00
23574;BME280;11965;53.640;10.050;2023-03-01T05:20:24;102926.47;;;-0.82;100.00
23574;BME280;11965;53.640;10.050;2023-03-01T05:22:55;102927.81;;;-0.72;100.00
23574;BME280;11965;53.640;10.050;2023-03-01T05:25:22;102930.44;;;-0.70;100.00
23574;BME280;11965;53.640;10.050;2023-03-01T05:27:49;102929.31;;;-0.64;100.00
23574;BME280;11965;53.640;10.050;2023-03-01T05:30:16;102923.78;;;-0.63;100.00
23574;BME280;11965;53.640;10.050;2023-03-01T05:32:47;102930.03;;;-0.61;100.00
23574;BME280;11965;53.640;10.050;2023-03-01T05:35:17;102920.75;;;-0.57;100.00
23574;BME280;11965;53.640;10.050;2023-03-01T05:37:46;102916.63;;;-0.65;100.00
23574;BME280;11965;53.640;10.050;2023-03-01T05:40:17;102917.50;;;-0.65;100.00
23574;BME280;11965;53.640;10.050;2023-03-01T05:42:45;102906.41;;;-0.60;100.00
23574;BME280;11965;53.640;10.050;2023-03-01T05:45:13;102899.34;;;-0.64;100.00
23574;BME280;11965;53.640;10.050;2023-03-01T05:47:42;102899.72;;;-0.72;100.00
23574;BME280;11965;53.640;10.050;2023-03-01T05:50:17;102906.03;;;-0.72;100.00
23574;BME280;11965;53.640;10.050;2023-03-01T05:52:47;102904.47;;;-0.77;100.00
23574;BME280;11965;53.640;10.050;2023-03-01T05:55:15;102909.66;;;-0.92;100.00
23574;BME280;11965;53.640;10.050;2023-03-01T05:57:42;102909.78;;;-0.95;100.00
23574;BME280;11965;53.640;10.050;2023-03-01T06:00:10;102889.94;;;-0.97;100.00
23574;BME280;11965;53.640;10.050;2023-03-01T06:02:40;102896.47;;;-1.01;100.00
23574;BME280;11965;53.640;10.050;2023-03-01T06:05:09;102898.59;;;-1.07;100.00
23574;BME280;11965;53.640;10.050;2023-03-01T06:07:38;102895.31;;;-1.16;100.00
23574;BME280;11965;53.640;10.050;2023-03-01T06:10:06;102890.28;;;-1.25;100.00
23574;BME280;11965;53.640;10.050;2023-03-01T06:12:36;102897.75;;;-1.30;100.00
23574;BME280;11965;53.640;10.050;2023-03-01T06:15:05;102898.91;;;-1.36;100.00
23574;BME280;11965;53.640;10.050;2023-03-01T06:17:37;102898.09;;;-1.38;100.00
23574;BME280;11965;53.640;10.050;2023-03-01T06:20:07;102902.59;;;-1.37;100.00
23574;BME280;11965;53.640;10.050;2023-03-01T06:22:34;102905.09;;;-1.32;100.00
23574;BME280;11965;53.640;10.050;2023-03-01T06:25:04;102896.69;;;-1.26;100.00
23574;BME280;11965;53.640;10.050;2023-03-01T06:27:32;102893.22;;;-1.09;100.00
23574;BME280;11965;53.640;10.050;2023-03-01T06:29:58;102895.50;;;-1.00;100.00
23574;BME280;11965;53.640;10.050;2023-03-01T06:32:25;102895.31;;;-0.95;100.00
23574;BME280;11965;53.640;10.050;2023-03-01T06:34:52;102905.56;;;-0.81;100.00
23574;BME280;11965;53.640;10.050;2023-03-01T06:37:19;102903.00;;;-0.65;100.00
23574;BME280;11965;53.640;10.050;2023-03-01T06:39:46;102901.69;;;-0.57;100.00
23574;BME280;11965;53.640;10.050;2023-03-01T06:42:14;102903.47;;;-0.56;100.00
23574;BME280;11965;53.640;10.050;2023-03-01T06:44:41;102903.69;;;-0.41;100.00
23574;BME280;11965;53.640;10.050;2023-03-01T06:47:08;102900.09;;;-0.23;100.00
23574;BME280;11965;53.640;10.050;2023-03-01T06:49:34;102909.75;;;-0.16;100.00
23574;BME280;11965;53.640;10.050;2023-03-01T06:52:01;102907.44;;;-0.06;100.00
23574;BME280;11965;53.640;10.050;2023-03-01T06:54:28;102912.63;;;0.00;100.00
23574;BME280;11965;53.640;10.050;2023-03-01T06:56:55;102911.28;;;0.09;100.00
23574;BME280;11965;53.640;10.050;2023-03-01T06:59:23;102900.88;;;0.17;100.00
23574;BME280;11965;53.640;10.050;2023-03-01T07:01:50;102910.47;;;0.24;100.00
23574;BME280;11965;53.640;10.050;2023-03-01T07:04:17;102913.59;;;0.35;100.00
23574;BME280;11965;53.640;10.050;2023-03-01T07:06:44;102910.69;;;0.38;100.00
23574;BME280;11965;53.640;10.050;2023-03-01T07:09:10;102906.06;;;0.40;100.00
23574;BME280;11965;53.640;10.050;2023-03-01T07:11:37;102909.59;;;0.60;100.00
23574;BME280;11965;53.640;10.050;2023-03-01T07:14:04;102896.25;;;0.71;100.00
23574;BME280;11965;53.640;10.050;2023-03-01T07:16:33;102902.38;;;0.76;100.00
23574;BME280;11965;53.640;10.050;2023-03-01T07:19:00;102886.38;;;0.86;100.00
23574;BME280;11965;53.640;10.050;2023-03-01T07:21:29;102890.31;;;0.98;99.64
23574;BME280;11965;53.640;10.050;2023-03-01T07:23:56;102884.50;;;1.04;98.42
23574;BME280;11965;53.640;10.050;2023-03-01T07:26:23;102887.88;;;1.09;96.62
23574;BME280;11965;53.640;10.050;2023-03-01T07:28:50;102886.41;;;1.19;95.89
23574;BME280;11965;53.640;10.050;2023-03-01T07:31:17;102881.75;;;1.21;95.61
23574;BME280;11965;53.640;10.050;2023-03-01T07:33:45;102882.22;;;1.29;95.20
23574;BME280;11965;53.640;10.050;2023-03-01T07:36:12;102886.47;;;1.35;93.59
23574;BME280;11965;53.640;10.050;2023-03-01T07:38:39;102869.38;;;1.47;93.33
23574;BME280;11965;53.640;10.050;2023-03-01T07:41:05;102880.44;;;1.62;92.97
23574;BME280;11965;53.640;10.050;2023-03-01T07:43:32;102878.13;;;1.70;91.64
23574;BME280;11965;53.640;10.050;2023-03-01T07:46:01;102880.69;;;1.73;88.84
23574;BME280;11965;53.640;10.050;2023-03-01T07:48:29;102880.34;;;1.79;87.52
23574;BME280;11965;53.640;10.050;2023-03-01T07:50:59;102879.72;;;1.90;86.72
23574;BME280;11965;53.640;10.050;2023-03-01T07:53:27;102889.84;;;2.04;86.94
23574;BME280;11965;53.640;10.050;2023-03-01T07:56:01;102881.75;;;2.18;86.91
23574;BME280;11965;53.640;10.050;2023-03-01T07:58:28;102875.72;;;2.27;84.75
23574;BME280;11965;53.640;10.050;2023-03-01T08:00:54;102881.34;;;2.40;85.05
23574;BME280;11965;53.640;10.050;2023-03-01T08:03:21;102877.84;;;2.52;83.93
23574;BME280;11965;53.640;10.050;2023-03-01T08:05:48;102877.69;;;2.55;82.28
23574;BME280;11965;53.640;10.050;2023-03-01T08:08:16;102882.53;;;2.66;83.33
23574;BME280;11965;53.640;10.050;2023-03-01T08:10:43;102899.25;;;2.76;82.40
23574;BME280;11965;53.640;10.050;2023-03-01T08:13:10;102887.50;;;2.74;82.72
23574;BME280;11965;53.640;10.050;2023-03-01T08:15:37;102884.03;;;3.00;83.27
23574;BME280;11965;53.640;10.050;2023-03-01T08:18:04;102892.47;;;2.97;81.57
23574;BME280;11965;53.640;10.050;2023-03-01T08:20:32;102891.59;;;2.97;83.85
23574;BME280;11965;53.640;10.050;2023-03-01T08:22:59;102895.00;;;3.00;82.42
23574;BME280;11965;53.640;10.050;2023-03-01T08:25:27;102897.28;;;3.08;81.83
23574;BME280;11965;53.640;10.050;2023-03-01T08:27:54;102898.28;;;3.21;81.97
23574;BME280;11965;53.640;10.050;2023-03-01T08:30:20;102896.78;;;3.01;82.55
23574;BME280;11965;53.640;10.050;2023-03-01T08:32:49;102894.53;;;3.08;82.35
23574;BME280;11965;53.640;10.050;2023-03-01T08:35:16;102889.34;;;3.03;81.84
23574;BME280;11965;53.640;10.050;2023-03-01T08:37:43;102894.34;;;3.11;81.76
23574;BME280;11965;53.640;10.050;2023-03-01T08:40:11;102890.31;;;3.17;82.50
23574;BME280;11965;53.640;10.050;2023-03-01T08:42:41;102889.38;;;3.18;81.45
23574;BME280;11965;53.640;10.050;2023-03-01T08:45:10;102894.97;;;3.30;81.54
23574;BME280;11965;53.640;10.050;2023-03-01T08:47:38;102885.06;;;3.57;81.45
23574;BME280;11965;53.640;10.050;2023-03-01T08:50:05;102884.97;;;3.58;79.63
23574;BME280;11965;53.640;10.050;2023-03-01T08:52:33;102885.81;;;3.87;78.79
23574;BME280;11965;53.640;10.050;2023-03-01T08:54:59;102889.38;;;4.02;79.81
23574;BME280;11965;53.640;10.050;2023-03-01T08:57:27;102896.28;;;3.95;78.54
23574;BME280;11965;53.640;10.050;2023-03-01T08:59:55;102898.19;;;4.07;78.26
23574;BME280;11965;53.640;10.050;2023-03-01T09:02:22;102897.84;;;3.99;77.57
23574;BME280;11965;53.640;10.050;2023-03-01T09:04:49;102901.91;;;3.79;79.50
23574;BME280;11965;53.640;10.050;2023-03-01T09:07:16;102899.19;;;4.06;78.71
23574;BME280;11965;53.640;10.050;2023-03-01T09:09:43;102888.25;;;4.19;77.90
23574;BME280;11965;53.640;10.050;2023-03-01T09:12:10;102898.00;;;4.37;77.55
23574;BME280;11965;53.640;10.050;2023-03-01T09:14:37;102892.69;;;4.49;77.08
23574;BME280;11965;53.640;10.050;2023-03-01T09:17:05;102889.88;;;4.36;77.10
23574;BME280;11965;53.640;10.050;2023-03-01T09:19:32;102890.53;;;4.39;77.50
23574;BME280;11965;53.640;10.050;2023-03-01T09:21:59;102892.69;;;4.61;77.45
23574;BME280;11965;53.640;10.050;2023-03-01T09:24:26;102890.22;;;4.71;77.49
23574;BME280;11965;53.640;10.050;2023-03-01T09:26:55;102889.66;;;4.39;77.37
23574;BME280;11965;53.640;10.050;2023-03-01T09:29:22;102889.66;;;4.39;79.24
23574;BME280;11965;53.640;10.050;2023-03-01T09:31:49;102889.59;;;4.53;78.50
23574;BME280;11965;53.640;10.050;2023-03-01T09:34:17;102894.81;;;4.71;77.74
23574;BME280;11965;53.640;10.050;2023-03-01T09:36:49;102895.84;;;4.82;76.56
23574;BME280;11965;53.640;10.050;2023-03-01T09:39:15;102890.06;;;4.60;77.51
23574;BME280;11965;53.640;10.050;2023-03-01T09:41:58;102886.13;;;4.64;79.32
23574;BME280;11965;53.640;10.050;2023-03-01T09:44:33;102886.06;;;4.78;77.90
23574;BME280;11965;53.640;10.050;2023-03-01T09:47:03;102900.75;;;4.77;78.04
23574;BME280;11965;53.640;10.050;2023-03-01T09:49:35;102894.19;;;4.80;77.94
23574;BME280;11965;53.640;10.050;2023-03-01T09:52:13;102893.22;;;4.81;77.39
23574;BME280;11965;53.640;10.050;2023-03-01T09:54:47;102894.06;;;4.94;78.53
23574;BME280;11965;53.640;10.050;2023-03-01T09:57:21;102893.75;;;4.99;79.22
23574;BME280;11965;53.640;10.050;2023-03-01T10:00:03;102889.16;;;5.12;78.47
23574;BME280;11965;53.640;10.050;2023-03-01T10:02:41;102888.72;;;5.31;77.57
23574;BME280;11965;53.640;10.050;2023-03-01T10:05:27;102883.09;;;5.45;76.97
23574;BME280;11965;53.640;10.050;2023-03-01T10:08:14;102883.22;;;5.44;76.87
23574;BME280;11965;53.640;10.050;2023-03-01T10:10:47;102887.53;;;5.35;76.09
23574;BME280;11965;53.640;10.050;2023-03-01T10:13:19;102883.53;;;5.39;76.04
23574;BME280;11965;53.640;10.050;2023-03-01T10:15:51;102885.00;;;5.32;77.91
23574;BME280;11965;53.640;10.050;2023-03-01T10:18:26;102885.00;;;5.32;77.76
23574;BME280;11965;53.640;10.050;2023-03-01T10:20:59;102891.38;;;5.20;78.17
23574;BME280;11965;53.640;10.050;2023-03-01T10:23:31;102885.88;;;5.20;79.11
23574;BME280;11965;53.640;10.050;2023-03-01T10:26:17;102885.63;;;5.10;79.46
23574;BME280;11965;53.640;10.050;2023-03-01T10:29:01;102882.34;;;4.92;78.32
23574;BME280;11965;53.640;10.050;2023-03-01T10:31:38;102884.72;;;4.71;80.51
23574;BME280;11965;53.640;10.050;2023-03-01T10:34:15;102879.34;;;4.42;82.30
23574;BME280;11965;53.640;10.050;2023-03-01T10:36:47;102875.00;;;4.53;82.73
23574;BME280;11965;53.640;10.050;2023-03-01T10:39:17;102874.13;;;4.52;84.14
23574;BME280;11965;53.640;10.050;2023-03-01T10:41:59;102873.56;;;4.47;85.46
23574;BME280;11965;53.640;10.050;2023-03-01T10:44:53;102868.84;;;4.49;85.44
23574;BME280;11965;53.640;10.050;2023-03-01T10:47:22;102870.59;;;4.50;87.16
23574;BME280;11965;53.640;10.050;2023-03-01T10:49:53;102869.97;;;4.72;86.25
23574;BME280;11965;53.640;10.050;2023-03-01T10:52:24;102866.38;;;4.84;85.63
23574;BME280;11965;53.640;10.050;2023-03-01T10:54:54;102868.69;;;4.91;84.38
23574;BME280;11965;53.640;10.050;2023-03-01T10:57:35;102866.13;;;4.75;85.08
23574;BME280;11965;53.640;10.050;2023-03-01T11:00:21;102862.84;;;4.82;85.46
23574;BME280;11965;53.640;10.050;2023-03-01T11:03:00;102855.06;;;5.02;83.49
23574;BME280;11965;53.640;10.050;2023-03-01T11:05:27;102859.69;;;5.01;83.86
23574;BME280;11965;53.640;10.050;2023-03-01T11:07:58;102856.94;;;5.01;84.86
23574;BME280;11965;53.640;10.050;2023-03-01T11:10:28;102848.81;;;5.00;85.67
23574;BME280;11965;53.640;10.050;2023-03-01T11:13:07;102844.97;;;5.02;85.67
23574;BME280;11965;53.640;10.050;2023-03-01T11:15:34;102848.69;;;5.01;86.50
23574;BME280;11965;53.640;10.050;2023-03-01T11:18:02;102849.16;;;5.08;86.55
23574;BME280;11965;53.640;10.050;2023-03-01T11:20:32;102842.88;;;5.06;85.97
23574;BME280;11965;53.640;10.050;2023-03-01T11:23:05;102839.91;;;5.09;84.89
23574;BME280;11965;53.640;10.050;2023-03-01T11:25:38;102832.22;;;5.14;84.53
23574;BME280;11965;53.640;10.050;2023-03-01T11:28:14;102837.47;;;5.04;85.89
23574;BME280;11965;53.640;10.050;2023-03-01T11:30:49;102836.38;;;5.20;85.88
23574;BME280;11965;53.640;10.050;2023-03-01T11:33:29;102836.69;;;5.15;86.61
23574;BME280;11965;53.640;10.050;2023-03-01T11:36:07;102835.84;;;5.15;86.18
23574;BME280;11965;53.640;10.050;2023-03-01T11:38:38;102825.72;;;5.15;86.47
23574;BME280;11965;53.640;10.050;2023-03-01T11:41:07;102824.06;;;5.25;85.31
23574;BME280;11965;53.640;10.050;2023-03-01T11:43:45;102823.50;;;5.46;84.38
23574;BME280;11965;53.640;10.050;2023-03-01T11:46:47;102819.63;;;5.48;84.17
23574;BME280;11965;53.640;10.050;2023-03-01T11:49:36;102818.09;;;5.44;84.35
23574;BME280;11965;53.640;10.050;2023-03-01T11:52:21;102812.50;;;5.46;85.63
23574;BME280;11965;53.640;10.050;2023-03-01T11:55:12;102815.06;;;5.73;83.16
23574;BME280;11965;53.640;10.050;2023-03-01T11:58:00;102820.03;;;5.68;82.89
23574;BME280;11965;53.640;10.050;2023-03-01T12:00:48;102806.50;;;5.65;83.39
23574;BME280;11965;53.640;10.050;2023-03-01T12:03:28;102803.19;;;5.72;83.64
23574;BME280;11965;53.640;10.050;2023-03-01T12:06:21;102803.59;;;5.79;82.97
23574;BME280;11965;53.640;10.050;2023-03-01T12:09:05;102808.75;;;5.84;82.97
23574;BME280;11965;53.640;10.050;2023-03-01T12:11:49;102811.34;;;5.98;81.01
23574;BME280;11965;53.640;10.050;2023-03-01T12:14:38;102820.09;;;6.16;80.26
23574;BME280;11965;53.640;10.050;2023-03-01T12:17:31;102806.13;;;6.30;78.69
23574;BME280;11965;53.640;10.050;2023-03-01T12:20:30;102796.72;;;6.22;78.37
23574;BME280;11965;53.640;10.050;2023-03-01T12:26:13;102803.00;;;6.00;80.39
23574;BME280;11965;53.640;10.050;2023-03-01T12:32:08;102793.06;;;6.45;78.73
23574;BME280;11965;53.640;10.050;2023-03-01T12:37:51;102785.41;;;6.49;76.43
23574;BME280;11965;53.640;10.050;2023-03-01T12:40:43;102780.69;;;6.51;76.62
23574;BME280;11965;53.640;10.050;2023-03-01T12:43:23;102778.50;;;6.32;78.68
23574;BME280;11965;53.640;10.050;2023-03-01T12:46:10;102763.13;;;6.52;76.63
23574;BME280;11965;53.640;10.050;2023-03-01T12:48:51;102759.34;;;6.41;77.35
23574;BME280;11965;53.640;10.050;2023-03-01T12:51:24;102760.66;;;6.60;74.94
23574;BME280;11965;53.640;10.050;2023-03-01T12:53:55;102763.03;;;6.53;75.93
23574;BME280;11965;53.640;10.050;2023-03-01T12:56:28;102758.50;;;6.52;76.60
23574;BME280;11965;53.640;10.050;2023-03-01T12:59:03;102749.44;;;6.39;77.91
23574;BME280;11965;53.640;10.050;2023-03-01T13:01:45;102747.44;;;6.41;77.47
23574;BME280;11965;53.640;10.050;2023-03-01T13:04:35;102745.22;;;6.46;76.24
23574;BME280;11965;53.640;10.050;2023-03-01T13:07:16;102742.69;;;6.32;78.15